Time;durP1;ratioP1;P1;durP2;ratioP2;P2;SDS_P1;SDS_P2;PMS_P1;PMS_P2;Temp;Humidity;BMP_temperature;BMP_pressure;BME280_temperature;BME280_humidity;BME280_pressure;Samples;Min_cycle;Max_cycle;Signal;HPM_P1;HPM_P2
2022/09/27 00:01:00;;;;;;;30.77;29.17;;;;;;;;;;5078590;28;20457;-78
2022/09/27 00:03:28;;;;;;;33.43;31.43;;;;;;;;;;5079596;28;20533;-80
2022/09/27 00:06:04;;;;;;;33.67;31.60;;;;;;;;;;5087242;28;20552;-79
2022/09/27 00:08:31;;;;;;;33.10;31.30;;;;;;;;;;5090304;28;20452;-80
2022/09/27 00:10:59;;;;;;;35.20;33.30;;;;;;;;;;5088194;28;20453;-80
2022/09/27 00:13:27;;;;;;;33.07;31.13;;;;;;;;;;5080438;28;20436;-80
2022/09/27 00:15:56;;;;;;;34.93;32.83;;;;;;;;;;5079424;28;20460;-80
2022/09/27 00:18:25;;;;;;;33.90;32.10;;;;;;;;;;5079617;28;20930;-79
2022/09/27 00:20:53;;;;;;;34.33;32.07;;;;;;;;;;5079362;28;20789;-79
2022/09/27 00:23:20;;;;;;;35.40;33.10;;;;;;;;;;5079827;28;20485;-79
2022/09/27 00:25:55;;;;;;;36.50;34.30;;;;;;;;;;5079829;28;20782;-79
2022/09/27 00:28:23;;;;;;;45.50;43.00;;;;;;;;;;5079524;28;20460;-80
2022/09/27 00:30:50;;;;;;;35.70;33.37;;;;;;;;;;5080310;28;20449;-80
2022/09/27 00:33:17;;;;;;;30.07;27.97;;;;;;;;;;5078937;28;20480;-79
2022/09/27 00:35:46;;;;;;;27.37;25.50;;;;;;;;;;5079347;28;20476;-79
2022/09/27 00:38:14;;;;;;;23.87;22.57;;;;;;;;;;5077429;28;20437;-78
2022/09/27 00:40:41;;;;;;;28.53;26.43;;;;;;;;;;5077200;28;20453;-79
2022/09/27 00:43:15;;;;;;;28.03;25.60;;;;;;;;;;5076850;28;20554;-78
2022/09/27 00:45:43;;;;;;;26.87;24.90;;;;;;;;;;5080152;28;20440;-79
2022/09/27 00:48:14;;;;;;;25.03;23.03;;;;;;;;;;5079941;28;20566;-79
2022/09/27 00:50:43;;;;;;;25.87;23.87;;;;;;;;;;5080446;28;20910;-79
2022/09/27 00:53:13;;;;;;;26.33;24.37;;;;;;;;;;5077900;28;20465;-80
2022/09/27 00:55:41;;;;;;;25.07;23.10;;;;;;;;;;5077969;28;20566;-78
2022/09/27 00:58:10;;;;;;;25.50;23.43;;;;;;;;;;5077307;28;20536;-79
2022/09/27 01:00:40;;;;;;;27.07;24.20;;;;;;;;;;5076618;28;20968;-79
2022/09/27 01:03:10;;;;;;;26.83;24.50;;;;;;;;;;5076074;28;20498;-79
2022/09/27 01:05:37;;;;;;;24.30;22.47;;;;;;;;;;5076917;28;20433;-80
2022/09/27 01:08:05;;;;;;;25.33;22.83;;;;;;;;;;5076783;28;20434;-79
2022/09/27 01:10:37;;;;;;;27.50;25.07;;;;;;;;;;5076662;28;20446;-79
2022/09/27 01:13:08;;;;;;;28.97;25.53;;;;;;;;;;5075639;28;20466;-79
2022/09/27 01:15:38;;;;;;;26.70;24.53;;;;;;;;;;5077616;28;20460;-79
2022/09/27 01:18:13;;;;;;;25.33;23.43;;;;;;;;;;5076431;28;20454;-79
2022/09/27 01:20:55;;;;;;;26.43;24.23;;;;;;;;;;5076299;28;20437;-79
2022/09/27 01:23:44;;;;;;;27.37;24.93;;;;;;;;;;5076063;28;20468;-79
2022/09/27 01:26:17;;;;;;;28.50;25.80;;;;;;;;;;5076227;28;20412;-79
2022/09/27 01:28:52;;;;;;;29.17;26.20;;;;;;;;;;5077307;28;20446;-78
2022/09/27 01:31:25;;;;;;;27.33;24.73;;;;;;;;;;5076890;28;20433;-80
2022/09/27 01:33:57;;;;;;;24.60;22.87;;;;;;;;;;5076326;28;20479;-79
2022/09/27 01:36:28;;;;;;;26.70;24.60;;;;;;;;;;5075733;28;20423;-79
2022/09/27 01:38:58;;;;;;;27.20;25.00;;;;;;;;;;5075051;28;20433;-79
2022/09/27 01:41:29;;;;;;;26.83;24.37;;;;;;;;;;5075172;28;20434;-79
2022/09/27 01:44:00;;;;;;;25.20;23.00;;;;;;;;;;5075443;28;20963;-79
2022/09/27 01:46:30;;;;;;;25.77;23.80;;;;;;;;;;5074954;28;20426;-79
2022/09/27 01:48:59;;;;;;;24.73;22.63;;;;;;;;;;5075303;28;20963;-79
2022/09/27 01:51:29;;;;;;;26.20;24.23;;;;;;;;;;5075070;28;20453;-80
2022/09/27 01:53:59;;;;;;;25.37;23.00;;;;;;;;;;5074971;28;20448;-79
2022/09/27 01:56:28;;;;;;;24.83;22.60;;;;;;;;;;5074718;28;20444;-79
2022/09/27 01:58:58;;;;;;;27.80;25.20;;;;;;;;;;5074536;28;20484;-79
2022/09/27 02:01:27;;;;;;;25.60;23.50;;;;;;;;;;5074052;28;20461;-79
2022/09/27 02:03:57;;;;;;;26.53;24.13;;;;;;;;;;5074613;28;20845;-79
2022/09/27 02:06:28;;;;;;;27.63;24.73;;;;;;;;;;5074649;28;20407;-79
2022/09/27 02:08:58;;;;;;;25.97;23.43;;;;;;;;;;5074646;28;20443;-79
2022/09/27 02:11:25;;;;;;;25.07;22.97;;;;;;;;;;5074234;28;20429;-79
2022/09/27 02:13:54;;;;;;;22.60;20.87;;;;;;;;;;5074263;28;20484;-79
2022/09/27 02:16:24;;;;;;;24.60;22.70;;;;;;;;;;5074437;28;20462;-79
2022/09/27 02:18:56;;;;;;;25.20;23.00;;;;;;;;;;5074304;28;20459;-79
2022/09/27 02:21:26;;;;;;;22.40;20.97;;;;;;;;;;5074081;28;20453;-79
2022/09/27 02:23:56;;;;;;;30.83;21.33;;;;;;;;;;5074162;28;20500;-79
2022/09/27 02:26:25;;;;;;;24.90;22.60;;;;;;;;;;5075523;28;20517;-79
2022/09/27 02:28:58;;;;;;;23.80;21.97;;;;;;;;;;5074776;28;20850;-78
2022/09/27 02:31:25;;;;;;;22.87;21.27;;;;;;;;;;5074508;28;20434;-79
2022/09/27 02:33:54;;;;;;;20.57;19.23;;;;;;;;;;5075210;28;20440;-79
2022/09/27 02:36:22;;;;;;;22.53;20.40;;;;;;;;;;5075416;28;20441;-78
2022/09/27 02:38:51;;;;;;;20.77;19.47;;;;;;;;;;5075683;28;20435;-79
2022/09/27 02:41:19;;;;;;;20.80;19.10;;;;;;;;;;5074876;28;20785;-79
2022/09/27 02:43:50;;;;;;;22.97;20.97;;;;;;;;;;5075071;28;20497;-80
2022/09/27 02:46:26;;;;;;;21.13;19.53;;;;;;;;;;5075096;28;20431;-79
2022/09/27 02:49:00;;;;;;;21.07;19.07;;;;;;;;;;5075256;28;20411;-79
2022/09/27 02:51:33;;;;;;;21.53;19.67;;;;;;;;;;5074821;28;20844;-80
2022/09/27 02:54:09;;;;;;;18.07;16.87;;;;;;;;;;5076050;28;20451;-79
2022/09/27 02:56:42;;;;;;;20.20;18.80;;;;;;;;;;5075383;28;20451;-80
2022/09/27 02:59:17;;;;;;;20.07;19.00;;;;;;;;;;5075830;28;20586;-80
2022/09/27 03:01:48;;;;;;;19.13;18.03;;;;;;;;;;5074724;28;20955;-80
2022/09/27 03:04:19;;;;;;;21.87;20.07;;;;;;;;;;5075723;28;20444;-79
2022/09/27 03:06:47;;;;;;;20.90;19.00;;;;;;;;;;5076277;28;20837;-78
2022/09/27 03:09:20;;;;;;;19.67;18.33;;;;;;;;;;5076508;28;20444;-78
2022/09/27 03:11:47;;;;;;;20.63;18.93;;;;;;;;;;5075208;28;20446;-79
2022/09/27 03:14:15;;;;;;;19.63;18.30;;;;;;;;;;5075851;28;20427;-79
2022/09/27 03:16:42;;;;;;;19.03;17.93;;;;;;;;;;5075454;28;20436;-79
2022/09/27 03:19:09;;;;;;;23.50;21.27;;;;;;;;;;5076649;28;20448;-79
2022/09/27 03:21:38;;;;;;;20.10;18.47;;;;;;;;;;5075386;28;20461;-79
2022/09/27 03:24:05;;;;;;;18.60;17.30;;;;;;;;;;5076473;28;20487;-80
2022/09/27 03:26:34;;;;;;;19.93;18.10;;;;;;;;;;5077042;28;20453;-80
2022/09/27 03:29:01;;;;;;;18.83;17.83;;;;;;;;;;5073501;28;20943;-79
2022/09/27 03:31:29;;;;;;;18.60;17.23;;;;;;;;;;5073206;28;20457;-79
2022/09/27 03:33:56;;;;;;;16.93;16.03;;;;;;;;;;5074177;28;20800;-79
2022/09/27 03:36:23;;;;;;;16.03;15.33;;;;;;;;;;5073462;28;20456;-79
2022/09/27 03:38:51;;;;;;;17.70;16.57;;;;;;;;;;5073701;28;20432;-79
2022/09/27 03:41:18;;;;;;;16.80;15.87;;;;;;;;;;5073286;28;20911;-79
2022/09/27 03:43:47;;;;;;;17.00;15.83;;;;;;;;;;5073269;28;20575;-79
2022/09/27 03:46:15;;;;;;;17.97;16.73;;;;;;;;;;5073599;28;20456;-79
2022/09/27 03:48:42;;;;;;;17.70;16.73;;;;;;;;;;5073480;28;20478;-79
2022/09/27 03:51:11;;;;;;;18.03;16.83;;;;;;;;;;5073014;28;20454;-79
2022/09/27 03:53:38;;;;;;;17.77;16.60;;;;;;;;;;5073397;28;20801;-79
2022/09/27 03:56:05;;;;;;;18.57;16.80;;;;;;;;;;5073036;28;20445;-79
2022/09/27 03:58:33;;;;;;;17.27;16.00;;;;;;;;;;5073284;28;20427;-79
2022/09/27 04:01:02;;;;;;;19.30;17.90;;;;;;;;;;5072547;28;20453;-79
2022/09/27 04:03:29;;;;;;;19.77;18.47;;;;;;;;;;5072940;28;20469;-79
2022/09/27 04:05:59;;;;;;;19.63;17.97;;;;;;;;;;5073372;28;20451;-79
2022/09/27 04:08:26;;;;;;;19.13;17.73;;;;;;;;;;5074877;28;20460;-79
2022/09/27 04:10:53;;;;;;;18.10;16.90;;;;;;;;;;5076456;28;20424;-79
2022/09/27 04:13:21;;;;;;;17.17;16.17;;;;;;;;;;5076785;28;20464;-78
2022/09/27 04:15:48;;;;;;;17.47;16.37;;;;;;;;;;5076559;28;20922;-78
2022/09/27 04:18:17;;;;;;;18.53;17.40;;;;;;;;;;5076389;28;20446;-78
2022/09/27 04:20:44;;;;;;;17.60;16.50;;;;;;;;;;5076597;28;20420;-78
2022/09/27 04:23:12;;;;;;;18.17;17.17;;;;;;;;;;5075799;28;20456;-79
2022/09/27 04:25:39;;;;;;;18.70;17.60;;;;;;;;;;5076561;28;20496;-79
2022/09/27 04:28:07;;;;;;;18.80;17.20;;;;;;;;;;5076528;28;20442;-79
2022/09/27 04:30:34;;;;;;;17.10;16.30;;;;;;;;;;5076561;28;20454;-79
2022/09/27 04:33:02;;;;;;;18.80;17.40;;;;;;;;;;5075609;28;20443;-79
2022/09/27 04:38:16;;;;;;;17.60;16.70;;;;;;;;;;5076407;28;20959;-78
2022/09/27 04:40:43;;;;;;;18.07;16.90;;;;;;;;;;5075609;28;20454;-77
2022/09/27 04:43:11;;;;;;;17.97;16.50;;;;;;;;;;5075300;28;20522;-79
2022/09/27 04:45:38;;;;;;;18.40;17.37;;;;;;;;;;5076069;28;20842;-79
2022/09/27 04:48:05;;;;;;;19.93;18.73;;;;;;;;;;5075817;28;20455;-79
2022/09/27 04:50:34;;;;;;;19.70;18.60;;;;;;;;;;5076124;28;20818;-78
2022/09/27 04:53:02;;;;;;;20.23;19.00;;;;;;;;;;5075178;28;20474;-79
2022/09/27 04:55:29;;;;;;;18.20;17.30;;;;;;;;;;5075600;28;20446;-78
2022/09/27 04:57:56;;;;;;;20.20;18.63;;;;;;;;;;5075856;28;20452;-79
2022/09/27 05:00:24;;;;;;;18.03;17.03;;;;;;;;;;5075489;28;20442;-78
2022/09/27 05:02:51;;;;;;;17.47;16.37;;;;;;;;;;5074826;28;20485;-79
2022/09/27 05:05:19;;;;;;;19.90;18.07;;;;;;;;;;5075831;28;20481;-79
2022/09/27 05:07:48;;;;;;;20.20;19.00;;;;;;;;;;5075887;28;20453;-79
2022/09/27 05:10:15;;;;;;;18.87;17.87;;;;;;;;;;5075449;28;20463;-78
2022/09/27 05:12:43;;;;;;;17.73;16.90;;;;;;;;;;5075158;28;20474;-79
2022/09/27 05:15:10;;;;;;;19.00;17.80;;;;;;;;;;5075626;28;20809;-79
2022/09/27 05:17:37;;;;;;;17.90;16.67;;;;;;;;;;5075559;28;20458;-79
2022/09/27 05:20:05;;;;;;;19.97;18.80;;;;;;;;;;5075147;28;20449;-78
2022/09/27 05:22:33;;;;;;;18.53;17.53;;;;;;;;;;5074571;28;20977;-79
2022/09/27 05:25:01;;;;;;;17.37;16.40;;;;;;;;;;5076947;28;20478;-79
2022/09/27 05:27:29;;;;;;;19.93;18.50;;;;;;;;;;5078164;28;20424;-78
2022/09/27 05:29:59;;;;;;;18.60;17.50;;;;;;;;;;5077970;28;20541;-79
2022/09/27 05:32:26;;;;;;;19.13;17.73;;;;;;;;;;5077060;28;20447;-79
2022/09/27 05:34:53;;;;;;;18.57;17.33;;;;;;;;;;5075316;28;20453;-78
2022/09/27 05:37:21;;;;;;;17.80;16.80;;;;;;;;;;5074804;28;20460;-78
2022/09/27 05:39:48;;;;;;;18.27;16.80;;;;;;;;;;5074899;28;20424;-79
2022/09/27 05:42:18;;;;;;;17.40;16.50;;;;;;;;;;5074530;28;20477;-79
2022/09/27 05:44:46;;;;;;;17.07;16.27;;;;;;;;;;5074661;28;20539;-79
2022/09/27 05:47:14;;;;;;;18.07;16.67;;;;;;;;;;5074622;28;20440;-79
2022/09/27 05:49:41;;;;;;;17.20;16.37;;;;;;;;;;5075015;28;20482;-78
2022/09/27 05:52:08;;;;;;;18.40;17.10;;;;;;;;;;5074200;28;20454;-78
2022/09/27 05:54:36;;;;;;;17.13;16.33;;;;;;;;;;5074887;28;20805;-78
2022/09/27 05:57:03;;;;;;;18.80;17.70;;;;;;;;;;5074564;28;20438;-78
2022/09/27 05:59:33;;;;;;;19.60;17.90;;;;;;;;;;5074469;28;20445;-79
2022/09/27 06:02:00;;;;;;;18.10;16.90;;;;;;;;;;5073297;28;20486;-79
2022/09/27 06:04:28;;;;;;;17.33;16.33;;;;;;;;;;5074353;28;20550;-79
2022/09/27 06:06:57;;;;;;;17.30;16.40;;;;;;;;;;5074648;28;20424;-78
2022/09/27 06:09:27;;;;;;;17.50;16.43;;;;;;;;;;5074325;28;20941;-79
2022/09/27 06:11:55;;;;;;;17.63;16.70;;;;;;;;;;5073881;28;20816;-79
2022/09/27 06:14:23;;;;;;;18.87;17.60;;;;;;;;;;5073418;28;20478;-78
2022/09/27 06:16:53;;;;;;;18.07;16.83;;;;;;;;;;5074029;28;21134;-79
2022/09/27 06:19:21;;;;;;;18.33;17.23;;;;;;;;;;5074136;28;20437;-79
2022/09/27 06:21:50;;;;;;;18.60;17.30;;;;;;;;;;5073797;28;20456;-79
2022/09/27 06:24:17;;;;;;;16.90;16.03;;;;;;;;;;5074030;28;20452;-79
2022/09/27 06:26:45;;;;;;;16.80;16.10;;;;;;;;;;5074194;28;20911;-79
2022/09/27 06:29:12;;;;;;;17.10;16.20;;;;;;;;;;5074380;28;20446;-79
2022/09/27 06:31:40;;;;;;;15.80;15.10;;;;;;;;;;5072560;28;20461;-78
2022/09/27 06:34:08;;;;;;;16.60;15.70;;;;;;;;;;5073964;28;20988;-79
2022/09/27 06:36:36;;;;;;;17.50;16.50;;;;;;;;;;5074280;28;20491;-79
2022/09/27 06:39:03;;;;;;;14.30;13.60;;;;;;;;;;5074038;28;20452;-79
2022/09/27 06:41:32;;;;;;;15.33;14.60;;;;;;;;;;5073357;28;20431;-79
2022/09/27 06:44:00;;;;;;;15.10;14.20;;;;;;;;;;5073804;28;20514;-79
2022/09/27 06:46:27;;;;;;;16.03;14.93;;;;;;;;;;5073985;28;20470;-79
2022/09/27 06:48:55;;;;;;;14.60;13.90;;;;;;;;;;5073830;28;20428;-78
2022/09/27 06:51:24;;;;;;;15.73;14.50;;;;;;;;;;5073713;28;20431;-79
2022/09/27 06:53:51;;;;;;;16.17;15.27;;;;;;;;;;5073864;28;20451;-79
2022/09/27 06:56:19;;;;;;;14.90;13.90;;;;;;;;;;5073723;28;20428;-79
2022/09/27 07:01:31;;;;;;;15.97;14.97;;;;;;;;;;5073550;28;20528;-79
2022/09/27 07:03:58;;;;;;;15.77;14.50;;;;;;;;;;5074116;28;20788;-78
2022/09/27 07:06:27;;;;;;;15.43;14.27;;;;;;;;;;5075014;28;20455;-78
2022/09/27 07:08:54;;;;;;;13.90;13.30;;;;;;;;;;5074651;28;20560;-78
2022/09/27 07:11:22;;;;;;;14.00;13.30;;;;;;;;;;5074156;28;20814;-79
2022/09/27 07:13:50;;;;;;;14.70;13.70;;;;;;;;;;5074073;28;20529;-79
2022/09/27 07:16:18;;;;;;;14.10;13.50;;;;;;;;;;5074746;28;20808;-77
2022/09/27 07:18:45;;;;;;;15.27;14.40;;;;;;;;;;5073845;28;20770;-79
2022/09/27 07:21:14;;;;;;;15.57;14.63;;;;;;;;;;5074053;28;20431;-79
2022/09/27 07:23:43;;;;;;;15.37;14.37;;;;;;;;;;5073732;28;20502;-79
2022/09/27 07:26:11;;;;;;;15.23;14.40;;;;;;;;;;5074162;28;20482;-79
2022/09/27 07:28:40;;;;;;;14.90;14.10;;;;;;;;;;5073713;28;20913;-75
2022/09/27 07:31:07;;;;;;;17.67;16.23;;;;;;;;;;5073313;28;20600;-79
2022/09/27 07:33:35;;;;;;;14.90;13.97;;;;;;;;;;5073770;28;20504;-78
2022/09/27 07:36:07;;;;;;;14.53;13.73;;;;;;;;;;5073600;28;20412;-78
2022/09/27 07:38:34;;;;;;;12.90;12.40;;;;;;;;;;5076039;28;20505;-80
2022/09/27 07:41:07;;;;;;;16.90;15.73;;;;;;;;;;5077751;28;20447;-76
2022/09/27 07:43:34;;;;;;;16.03;14.80;;;;;;;;;;5074813;28;20467;-77
2022/09/27 07:46:02;;;;;;;15.43;14.40;;;;;;;;;;5077411;28;20514;-77
2022/09/27 07:48:29;;;;;;;15.70;14.90;;;;;;;;;;5077186;28;20456;-77
2022/09/27 07:50:56;;;;;;;14.87;14.17;;;;;;;;;;5076575;28;20454;-77
2022/09/27 07:53:24;;;;;;;15.93;15.03;;;;;;;;;;5076989;28;20798;-77
2022/09/27 07:55:52;;;;;;;15.00;13.93;;;;;;;;;;5077001;28;20428;-78
2022/09/27 07:58:22;;;;;;;14.60;13.90;;;;;;;;;;5076670;28;20938;-78
2022/09/27 08:00:50;;;;;;;15.27;14.30;;;;;;;;;;5076878;28;20816;-77
2022/09/27 08:03:17;;;;;;;14.13;13.50;;;;;;;;;;5076207;28;20526;-78
2022/09/27 08:05:46;;;;;;;15.67;14.70;;;;;;;;;;5076444;28;21019;-78
2022/09/27 08:08:13;;;;;;;14.67;14.07;;;;;;;;;;5076851;28;20506;-78
2022/09/27 08:10:46;;;;;;;13.63;12.90;;;;;;;;;;5076445;28;20450;-77
2022/09/27 08:13:18;;;;;;;13.20;12.50;;;;;;;;;;5076171;28;20466;-78
2022/09/27 08:15:51;;;;;;;14.10;13.30;;;;;;;;;;5076472;28;20467;-78
2022/09/27 08:18:20;;;;;;;14.67;13.83;;;;;;;;;;5076980;28;20456;-77
2022/09/27 08:20:48;;;;;;;13.83;13.03;;;;;;;;;;5080928;28;20426;-80
2022/09/27 08:23:16;;;;;;;14.20;13.50;;;;;;;;;;5082211;28;20484;-80
2022/09/27 08:25:43;;;;;;;21.43;13.73;;;;;;;;;;5085670;28;20480;-79
2022/09/27 08:28:10;;;;;;;13.63;12.83;;;;;;;;;;5085264;28;20463;-80
2022/09/27 08:30:38;;;;;;;13.80;12.67;;;;;;;;;;5085603;28;20453;-79
2022/09/27 08:33:07;;;;;;;15.57;14.57;;;;;;;;;;5084549;28;20480;-79
2022/09/27 08:35:35;;;;;;;15.87;14.67;;;;;;;;;;5086800;28;20837;-79
2022/09/27 08:38:04;;;;;;;16.30;15.30;;;;;;;;;;5086061;28;20446;-79
2022/09/27 08:40:36;;;;;;;15.70;14.20;;;;;;;;;;5085692;28;20453;-79
2022/09/27 08:43:07;;;;;;;14.03;13.00;;;;;;;;;;5085485;28;20442;-79
2022/09/27 08:45:39;;;;;;;16.03;14.57;;;;;;;;;;5086340;28;20484;-79
2022/09/27 08:48:10;;;;;;;13.63;12.73;;;;;;;;;;5086325;28;20445;-79
2022/09/27 08:50:41;;;;;;;13.60;12.77;;;;;;;;;;5086263;28;20912;-79
2022/09/27 08:53:18;;;;;;;12.30;11.73;;;;;;;;;;5085568;28;20502;-80
2022/09/27 08:55:46;;;;;;;18.63;14.03;;;;;;;;;;5085233;28;20441;-79
2022/09/27 08:58:15;;;;;;;14.17;13.17;;;;;;;;;;5086630;28;20468;-79
2022/09/27 09:00:43;;;;;;;14.03;13.00;;;;;;;;;;5085742;28;20457;-79
2022/09/27 09:03:17;;;;;;;15.17;14.03;;;;;;;;;;5085203;28;21015;-80
2022/09/27 09:05:48;;;;;;;13.17;12.47;;;;;;;;;;5085298;28;20539;-79
2022/09/27 09:08:25;;;;;;;13.80;13.00;;;;;;;;;;5085776;28;20429;-80
2022/09/27 09:13:58;;;;;;;13.17;12.30;;;;;;;;;;5085034;28;20945;-79
2022/09/27 09:16:32;;;;;;;12.63;12.03;;;;;;;;;;5084895;28;20890;-79
2022/09/27 09:19:10;;;;;;;12.00;11.50;;;;;;;;;;5084961;28;20483;-79
2022/09/27 09:21:43;;;;;;;12.03;11.53;;;;;;;;;;5084831;28;20441;-80
2022/09/27 09:24:18;;;;;;;13.07;12.37;;;;;;;;;;5085308;28;20527;-80
2022/09/27 09:26:51;;;;;;;12.33;11.70;;;;;;;;;;5084915;28;20883;-80
2022/09/27 09:29:27;;;;;;;12.30;11.67;;;;;;;;;;5085065;28;20453;-79
2022/09/27 09:31:58;;;;;;;13.97;12.87;;;;;;;;;;5084511;28;20437;-79
2022/09/27 09:34:28;;;;;;;13.00;12.23;;;;;;;;;;5085139;28;20433;-79
2022/09/27 09:36:57;;;;;;;13.57;11.80;;;;;;;;;;5084678;28;20468;-79
2022/09/27 09:39:27;;;;;;;13.63;12.03;;;;;;;;;;5085134;28;20472;-79
2022/09/27 09:42:03;;;;;;;12.80;12.00;;;;;;;;;;5085444;28;20499;-79
2022/09/27 09:44:33;;;;;;;12.50;11.73;;;;;;;;;;5085631;28;20453;-79
2022/09/27 09:47:01;;;;;;;12.50;12.00;;;;;;;;;;5085452;28;21014;-79
2022/09/27 09:49:31;;;;;;;12.27;11.63;;;;;;;;;;5085189;28;20453;-79
2022/09/27 09:52:01;;;;;;;13.60;12.47;;;;;;;;;;5084206;28;20446;-79
2022/09/27 09:54:32;;;;;;;12.33;11.53;;;;;;;;;;5085223;28;20445;-79
2022/09/27 09:57:03;;;;;;;11.97;11.37;;;;;;;;;;5084862;28;20441;-79
2022/09/27 09:59:34;;;;;;;12.40;11.80;;;;;;;;;;5085032;28;20838;-79
2022/09/27 10:02:09;;;;;;;14.23;13.40;;;;;;;;;;5084250;28;20433;-79
2022/09/27 10:04:38;;;;;;;13.90;13.00;;;;;;;;;;5085074;28;20484;-80
2022/09/27 10:07:05;;;;;;;13.50;12.70;;;;;;;;;;5082272;28;20467;-79
2022/09/27 10:09:33;;;;;;;14.60;13.70;;;;;;;;;;5079905;28;20445;-78
2022/09/27 10:12:01;;;;;;;13.67;12.77;;;;;;;;;;5080825;28;20541;-80
2022/09/27 10:14:28;;;;;;;13.87;13.00;;;;;;;;;;5080905;28;20782;-80
2022/09/27 10:16:57;;;;;;;15.33;14.23;;;;;;;;;;5080757;28;20412;-81
2022/09/27 10:19:28;;;;;;;15.83;15.03;;;;;;;;;;5083711;28;20467;-79
2022/09/27 10:22:00;;;;;;;16.37;15.57;;;;;;;;;;5082542;28;20456;-79
2022/09/27 10:24:28;;;;;;;16.40;15.70;;;;;;;;;;5080843;28;20445;-80
2022/09/27 10:26:58;;;;;;;18.13;17.33;;;;;;;;;;5080044;28;20481;-79
2022/09/27 10:29:29;;;;;;;20.30;19.40;;;;;;;;;;5080351;28;20446;-79
2022/09/27 10:31:57;;;;;;;20.13;19.23;;;;;;;;;;5080704;28;20790;-80
2022/09/27 10:34:30;;;;;;;20.73;19.73;;;;;;;;;;5085278;28;20451;-80
2022/09/27 10:37:16;;;;;;;21.47;20.27;;;;;;;;;;5095013;28;20429;-80
2022/09/27 10:39:44;;;;;;;21.83;20.70;;;;;;;;;;5094509;28;20452;-79
2022/09/27 10:42:32;;;;;;;19.57;18.57;;;;;;;;;;5089921;28;20519;-79
2022/09/27 10:45:00;;;;;;;19.87;18.00;;;;;;;;;;5083022;28;20462;-79
2022/09/27 10:47:28;;;;;;;15.80;15.00;;;;;;;;;;5082276;28;20462;-79
2022/09/27 10:50:03;;;;;;;14.97;14.27;;;;;;;;;;5081650;28;20539;-79
2022/09/27 10:52:32;;;;;;;15.97;14.97;;;;;;;;;;5078792;28;20530;-79
2022/09/27 10:55:02;;;;;;;15.40;14.63;;;;;;;;;;5077192;28;20474;-79
2022/09/27 10:57:30;;;;;;;15.13;14.30;;;;;;;;;;5076719;28;20455;-79
2022/09/27 10:59:59;;;;;;;14.53;13.83;;;;;;;;;;5075848;28;20465;-80
2022/09/27 11:02:29;;;;;;;15.10;14.30;;;;;;;;;;5075476;28;20966;-79
2022/09/27 11:05:07;;;;;;;13.80;13.20;;;;;;;;;;5076834;28;20971;-79
2022/09/27 11:07:38;;;;;;;16.73;15.67;;;;;;;;;;5075870;28;20485;-78
2022/09/27 11:10:21;;;;;;;14.53;13.80;;;;;;;;;;5076675;28;20419;-78
2022/09/27 11:13:06;;;;;;;15.50;14.60;;;;;;;;;;5076467;28;20532;-80
2022/09/27 11:15:39;;;;;;;15.77;14.63;;;;;;;;;;5082108;28;20492;-85
2022/09/27 11:18:10;;;;;;;15.17;14.20;;;;;;;;;;5086608;28;20520;-84
2022/09/27 11:20:40;;;;;;;16.73;15.53;;;;;;;;;;5088632;28;20460;-84
2022/09/27 11:23:17;;;;;;;15.00;14.17;;;;;;;;;;5081901;28;20883;-77
2022/09/27 11:25:52;;;;;;;14.13;13.33;;;;;;;;;;5083234;28;20444;-77
2022/09/27 11:28:23;;;;;;;14.83;14.03;;;;;;;;;;5077499;28;20457;-77
2022/09/27 11:30:56;;;;;;;14.40;13.80;;;;;;;;;;5082836;28;20433;-85
2022/09/27 11:33:36;;;;;;;15.37;14.50;;;;;;;;;;5088863;28;20504;-84
2022/09/27 11:36:06;;;;;;;14.90;14.27;;;;;;;;;;5088892;28;20433;-84
2022/09/27 11:38:39;;;;;;;15.33;14.40;;;;;;;;;;5088032;28;20452;-85
2022/09/27 11:41:12;;;;;;;15.67;14.77;;;;;;;;;;5088777;28;20460;-83
2022/09/27 11:43:47;;;;;;;14.17;13.50;;;;;;;;;;5088691;28;20483;-84
2022/09/27 11:46:19;;;;;;;14.67;13.97;;;;;;;;;;5089691;28;20488;-84
2022/09/27 11:48:51;;;;;;;15.77;14.67;;;;;;;;;;5080543;28;20445;-77
2022/09/27 11:51:43;;;;;;;13.83;13.23;;;;;;;;;;5076956;28;20439;-77
2022/09/27 11:54:18;;;;;;;12.70;12.10;;;;;;;;;;5061593;28;21151;-76
2022/09/27 11:56:51;;;;;;;15.80;14.43;;;;;;;;;;5077048;28;20441;-78
2022/09/27 11:59:34;;;;;;;12.43;11.93;;;;;;;;;;5076933;28;20429;-76
2022/09/27 12:02:03;;;;;;;15.00;14.00;;;;;;;;;;5075845;28;20449;-77
2022/09/27 12:04:52;;;;;;;13.80;13.20;;;;;;;;;;5076577;28;20408;-77
2022/09/27 12:07:24;;;;;;;14.50;13.70;;;;;;;;;;5076142;28;20480;-77
2022/09/27 12:09:53;;;;;;;12.67;12.17;;;;;;;;;;5075241;28;20445;-76
2022/09/27 12:12:22;;;;;;;12.73;12.23;;;;;;;;;;5076114;28;20472;-76
2022/09/27 12:14:51;;;;;;;14.03;13.40;;;;;;;;;;5076414;28;20457;-76
2022/09/27 12:17:20;;;;;;;14.70;13.80;;;;;;;;;;5076162;28;20469;-77
2022/09/27 12:19:50;;;;;;;14.00;13.30;;;;;;;;;;5076305;28;20448;-77
2022/09/27 12:22:21;;;;;;;15.00;14.10;;;;;;;;;;5075541;28;20469;-76
2022/09/27 12:24:48;;;;;;;16.70;15.87;;;;;;;;;;5076243;28;20475;-76
2022/09/27 12:27:20;;;;;;;13.90;13.10;;;;;;;;;;5091252;28;20480;-76
2022/09/27 12:29:49;;;;;;;15.10;14.30;;;;;;;;;;5098467;28;20434;-81
2022/09/27 12:32:18;;;;;;;13.80;12.70;;;;;;;;;;5107657;28;20827;-83
2022/09/27 12:34:48;;;;;;;13.13;12.57;;;;;;;;;;5102894;28;20456;-83
2022/09/27 12:37:18;;;;;;;12.67;12.10;;;;;;;;;;5098776;28;20557;-76
2022/09/27 12:39:50;;;;;;;14.40;13.70;;;;;;;;;;5097022;28;20573;-76
2022/09/27 12:42:22;;;;;;;13.40;12.80;;;;;;;;;;5095988;28;20555;-81
2022/09/27 12:44:50;;;;;;;14.57;13.70;;;;;;;;;;5096390;28;20811;-77
2022/09/27 12:47:25;;;;;;;12.50;12.00;;;;;;;;;;5096101;28;20480;-77
2022/09/27 12:50:00;;;;;;;12.50;12.00;;;;;;;;;;5096787;28;20432;-77
2022/09/27 12:52:30;;;;;;;13.80;13.00;;;;;;;;;;5099567;28;20472;-84
2022/09/27 12:55:22;;;;;;;15.17;14.27;;;;;;;;;;5098851;28;20421;-78
2022/09/27 12:57:55;;;;;;;13.37;12.67;;;;;;;;;;5081785;28;20487;-77
2022/09/27 13:00:25;;;;;;;14.07;13.27;;;;;;;;;;5095216;28;20459;-78
2022/09/27 13:03:08;;;;;;;14.33;13.37;;;;;;;;;;5094037;28;20973;-76
2022/09/27 13:06:06;;;;;;;14.13;13.33;;;;;;;;;;5095924;28;20873;-76
2022/09/27 13:08:47;;;;;;;14.83;14.10;;;;;;;;;;5096544;28;20960;-77
2022/09/27 13:11:19;;;;;;;18.33;16.93;;;;;;;;;;5095541;28;20448;-77
2022/09/27 13:13:48;;;;;;;13.30;12.70;;;;;;;;;;5096319;28;20479;-76
2022/09/27 13:16:15;;;;;;;13.70;12.80;;;;;;;;;;5096343;28;20453;-77
2022/09/27 13:18:54;;;;;;;15.17;14.27;;;;;;;;;;5095967;28;20970;-77
2022/09/27 13:21:39;;;;;;;15.17;14.13;;;;;;;;;;5095469;28;20969;-77
2022/09/27 13:24:28;;;;;;;14.67;13.77;;;;;;;;;;5085863;28;20495;-77
2022/09/27 13:27:00;;;;;;;15.53;14.63;;;;;;;;;;5095513;28;20465;-76
2022/09/27 13:29:30;;;;;;;15.43;14.63;;;;;;;;;;5095270;28;20453;-76
2022/09/27 13:32:22;;;;;;;14.47;13.67;;;;;;;;;;5094572;28;20915;-77
2022/09/27 13:34:50;;;;;;;13.60;12.90;;;;;;;;;;5095124;28;20464;-77
2022/09/27 13:37:39;;;;;;;12.70;12.10;;;;;;;;;;5095069;28;20432;-76
2022/09/27 13:40:12;;;;;;;13.20;12.60;;;;;;;;;;5089593;28;20424;-76
2022/09/27 13:42:43;;;;;;;12.60;12.03;;;;;;;;;;5094371;28;20472;-77
2022/09/27 13:45:25;;;;;;;13.70;12.90;;;;;;;;;;5095558;28;20433;-77
2022/09/27 13:47:52;;;;;;;13.33;12.80;;;;;;;;;;5095150;28;20469;-77
2022/09/27 13:50:24;;;;;;;14.47;13.70;;;;;;;;;;5094888;28;20937;-77
2022/09/27 13:53:06;;;;;;;13.07;12.47;;;;;;;;;;5094346;28;20472;-77
2022/09/27 13:55:41;;;;;;;14.57;13.77;;;;;;;;;;5095405;28;20435;-77
2022/09/27 13:58:28;;;;;;;14.27;13.67;;;;;;;;;;5095427;28;20505;-76
2022/09/27 14:00:59;;;;;;;12.77;12.17;;;;;;;;;;5094219;28;20464;-77
2022/09/27 14:03:29;;;;;;;13.50;12.90;;;;;;;;;;5095383;28;20464;-76
2022/09/27 14:05:58;;;;;;;15.13;14.00;;;;;;;;;;5095114;28;20436;-77
2022/09/27 14:08:29;;;;;;;12.43;11.93;;;;;;;;;;5094531;28;20481;-79
2022/09/27 14:10:57;;;;;;;13.90;13.20;;;;;;;;;;5094655;28;20444;-77
2022/09/27 14:13:25;;;;;;;13.90;13.30;;;;;;;;;;5094216;28;20527;-77
2022/09/27 14:15:54;;;;;;;14.73;13.83;;;;;;;;;;5094785;28;20426;-76
2022/09/27 14:18:23;;;;;;;14.00;12.90;;;;;;;;;;5094502;28;20452;-77
2022/09/27 14:20:51;;;;;;;12.83;12.23;;;;;;;;;;5094518;28;20446;-77
2022/09/27 14:23:21;;;;;;;13.40;12.60;;;;;;;;;;5094361;28;20476;-77
2022/09/27 14:25:49;;;;;;;13.00;12.40;;;;;;;;;;5094577;28;20960;-77
2022/09/27 14:28:23;;;;;;;12.90;12.30;;;;;;;;;;5094418;28;20484;-77
2022/09/27 14:31:05;;;;;;;12.07;11.60;;;;;;;;;;5094451;28;20432;-78
2022/09/27 14:33:35;;;;;;;11.90;11.30;;;;;;;;;;5094402;28;20477;-77
2022/09/27 14:38:48;;;;;;;12.67;12.03;;;;;;;;;;5094425;28;20418;-77
2022/09/27 14:41:16;;;;;;;11.80;11.27;;;;;;;;;;5094186;28;20832;-77
2022/09/27 14:43:44;;;;;;;12.27;11.77;;;;;;;;;;5093839;28;20525;-77
2022/09/27 14:46:25;;;;;;;12.37;11.73;;;;;;;;;;5093969;28;20423;-77